Time;durP1;ratioP1;P1;durP2;ratioP2;P2;SDS_P1;SDS_P2;PMS_P1;PMS_P2;Temp;Humidity;BMP_temperature;BMP_pressure;BME280_temperature;BME280_humidity;BME280_pressure;Samples;Min_cycle;Max_cycle;Signal;HPM_P1;HPM_P2
2021/01/28 00:01:57;;;;;;;12.82;7.40;;;;;;;;;;5113549;27;20027;-87
2021/01/28 00:04:43;;;;;;;14.73;7.20;;;;;;;;;;5106667;27;20027;-86
2021/01/28 00:07:28;;;;;;;11.32;5.50;;;;;;;;;;5110535;27;20024;-87
2021/01/28 00:10:14;;;;;;;8.48;5.50;;;;;;;;;;5114093;27;20035;-87
2021/01/28 00:13:00;;;;;;;13.38;8.15;;;;;;;;;;5113390;27;20473;-87
2021/01/28 00:15:45;;;;;;;10.68;6.70;;;;;;;;;;5112976;27;20054;-87
2021/01/28 00:18:30;;;;;;;8.77;5.82;;;;;;;;;;5118734;27;20029;-87
2021/01/28 00:21:15;;;;;;;12.75;7.80;;;;;;;;;;5111871;27;20082;-87
2021/01/28 00:24:00;;;;;;;10.57;6.57;;;;;;;;;;5113101;27;20109;-87
2021/01/28 00:26:46;;;;;;;9.18;5.80;;;;;;;;;;5115388;27;20500;-86
2021/01/28 00:29:31;;;;;;;10.38;6.85;;;;;;;;;;5110424;27;20026;-86
2021/01/28 00:32:17;;;;;;;11.40;6.55;;;;;;;;;;5116369;27;20023;-86
2021/01/28 00:35:03;;;;;;;10.93;6.78;;;;;;;;;;5112025;27;20023;-87
2021/01/28 00:37:48;;;;;;;12.13;8.10;;;;;;;;;;5114948;27;20083;-87
2021/01/28 00:40:33;;;;;;;17.50;8.95;;;;;;;;;;5111081;27;20431;-86
2021/01/28 00:43:19;;;;;;;11.07;7.28;;;;;;;;;;5110713;27;20015;-86
2021/01/28 00:46:05;;;;;;;12.98;7.43;;;;;;;;;;5112894;27;20022;-86
2021/01/28 00:48:50;;;;;;;11.85;8.05;;;;;;;;;;5108334;27;20088;-87
2021/01/28 00:51:35;;;;;;;12.05;7.80;;;;;;;;;;5105134;27;20054;-87
2021/01/28 00:54:20;;;;;;;12.02;6.97;;;;;;;;;;5114496;27;20031;-86
2021/01/28 00:57:06;;;;;;;13.43;8.25;;;;;;;;;;5113688;27;20051;-86
2021/01/28 00:59:51;;;;;;;11.80;7.30;;;;;;;;;;5111171;27;20031;-86
2021/01/28 01:02:37;;;;;;;13.38;7.57;;;;;;;;;;5098507;27;20027;-86
2021/01/28 01:05:23;;;;;;;10.90;6.35;;;;;;;;;;5117368;27;20024;-87
2021/01/28 01:08:11;;;;;;;14.48;8.73;;;;;;;;;;5110386;27;20023;-85
2021/01/28 01:10:58;;;;;;;13.45;7.72;;;;;;;;;;5114211;27;20030;-87
2021/01/28 01:13:43;;;;;;;14.43;8.63;;;;;;;;;;5113858;27;20027;-87
2021/01/28 01:16:29;;;;;;;11.02;7.22;;;;;;;;;;5110207;27;20766;-86
2021/01/28 01:19:14;;;;;;;10.88;5.72;;;;;;;;;;5111614;27;20027;-87
2021/01/28 01:22:00;;;;;;;10.75;6.05;;;;;;;;;;5109798;27;20023;-86
2021/01/28 01:24:45;;;;;;;9.10;5.45;;;;;;;;;;5108342;27;20027;-86
2021/01/28 01:27:30;;;;;;;12.45;7.93;;;;;;;;;;5108205;27;20134;-85
2021/01/28 01:30:17;;;;;;;14.50;8.38;;;;;;;;;;5098558;27;20499;-86
2021/01/28 01:33:02;;;;;;;8.07;5.70;;;;;;;;;;5110672;27;20446;-86
2021/01/28 01:35:47;;;;;;;12.98;8.20;;;;;;;;;;5111458;27;20023;-86
2021/01/28 01:38:33;;;;;;;12.02;8.55;;;;;;;;;;5106550;27;20020;-87
2021/01/28 01:41:18;;;;;;;12.32;8.43;;;;;;;;;;5100568;27;20026;-85
2021/01/28 01:44:03;;;;;;;12.55;8.77;;;;;;;;;;5111014;27;20026;-86
2021/01/28 01:46:58;;;;;;;12.48;7.32;;;;;;;;;;5112080;27;20468;-86
2021/01/28 01:49:45;;;;;;;12.00;7.63;;;;;;;;;;5119126;27;20027;-85
2021/01/28 01:52:31;;;;;;;10.90;6.53;;;;;;;;;;5095810;27;20600;-86
2021/01/28 01:55:17;;;;;;;11.65;7.10;;;;;;;;;;5098479;27;20252;-85
2021/01/28 01:58:03;;;;;;;8.45;5.68;;;;;;;;;;5094684;28;20072;-85
2021/01/28 02:00:48;;;;;;;13.02;8.57;;;;;;;;;;5092310;28;20144;-85
2021/01/28 02:03:35;;;;;;;13.23;8.57;;;;;;;;;;5090792;28;20048;-86
2021/01/28 02:06:26;;;;;;;13.30;7.57;;;;;;;;;;5084220;28;20077;-85
2021/01/28 02:09:12;;;;;;;10.52;7.28;;;;;;;;;;5085075;28;20021;-85
2021/01/28 02:11:57;;;;;;;9.20;6.00;;;;;;;;;;5088913;28;20462;-85
2021/01/28 02:14:43;;;;;;;12.45;7.70;;;;;;;;;;5085299;28;20570;-85
2021/01/28 02:17:29;;;;;;;10.02;6.05;;;;;;;;;;5086516;28;20016;-85
2021/01/28 02:20:32;;;;;;;8.75;6.18;;;;;;;;;;5082007;28;20036;-86
2021/01/28 02:23:24;;;;;;;10.68;6.93;;;;;;;;;;5088152;28;20016;-86
2021/01/28 02:26:09;;;;;;;10.32;6.35;;;;;;;;;;5084236;28;20389;-86
2021/01/28 02:28:54;;;;;;;12.00;6.35;;;;;;;;;;5083291;28;20073;-87
2021/01/28 02:31:42;;;;;;;11.95;7.05;;;;;;;;;;5092660;28;20094;-87
2021/01/28 02:34:27;;;;;;;12.25;7.68;;;;;;;;;;5084119;28;20534;-87
2021/01/28 02:37:18;;;;;;;12.57;7.72;;;;;;;;;;5073205;28;20031;-87
2021/01/28 02:40:03;;;;;;;15.48;8.85;;;;;;;;;;5085636;28;20035;-87
2021/01/28 02:42:48;;;;;;;9.82;6.03;;;;;;;;;;5085829;28;20031;-86
2021/01/28 02:45:35;;;;;;;10.52;6.22;;;;;;;;;;5083061;28;20102;-87
2021/01/28 02:48:20;;;;;;;12.98;7.38;;;;;;;;;;5090484;28;20762;-87
2021/01/28 02:51:06;;;;;;;14.88;7.88;;;;;;;;;;5084928;28;20031;-85
2021/01/28 02:53:53;;;;;;;12.63;6.90;;;;;;;;;;5088063;28;20024;-86
2021/01/28 02:56:38;;;;;;;11.27;6.80;;;;;;;;;;5084336;28;20562;-86
2021/01/28 02:59:24;;;;;;;10.48;5.93;;;;;;;;;;5111589;28;20047;-87
2021/01/28 03:02:11;;;;;;;10.57;6.28;;;;;;;;;;5107308;27;20055;-87
2021/01/28 03:04:56;;;;;;;10.00;6.57;;;;;;;;;;5112909;28;20023;-87
2021/01/28 03:07:41;;;;;;;12.80;7.07;;;;;;;;;;5112688;28;20024;-87
2021/01/28 03:10:27;;;;;;;9.60;5.72;;;;;;;;;;5109426;27;20027;-87
2021/01/28 03:13:12;;;;;;;8.32;4.95;;;;;;;;;;5105749;27;20046;-87
2021/01/28 03:15:58;;;;;;;11.10;6.03;;;;;;;;;;5114849;27;20496;-85
2021/01/28 03:18:43;;;;;;;7.47;4.70;;;;;;;;;;5120337;27;20023;-87
2021/01/28 03:21:29;;;;;;;8.45;4.57;;;;;;;;;;5113150;27;20038;-86
2021/01/28 03:24:14;;;;;;;7.03;4.00;;;;;;;;;;5112150;27;20035;-86
2021/01/28 03:27:00;;;;;;;9.10;5.35;;;;;;;;;;5113913;27;20389;-85
2021/01/28 03:29:45;;;;;;;8.38;5.35;;;;;;;;;;5114103;27;20408;-85
2021/01/28 03:32:30;;;;;;;6.20;3.50;;;;;;;;;;5115655;27;20027;-86
2021/01/28 03:35:16;;;;;;;8.10;4.78;;;;;;;;;;5121793;27;20020;-87
2021/01/28 03:38:01;;;;;;;10.18;4.60;;;;;;;;;;5117090;27;20102;-86
2021/01/28 03:40:46;;;;;;;7.22;4.68;;;;;;;;;;5116221;27;20096;-86
2021/01/28 03:43:32;;;;;;;8.30;4.53;;;;;;;;;;5114983;27;20377;-87
2021/01/28 03:46:17;;;;;;;9.70;4.93;;;;;;;;;;5115704;27;20109;-88
2021/01/28 03:49:02;;;;;;;8.15;4.65;;;;;;;;;;5111954;27;20027;-85
2021/01/28 03:51:47;;;;;;;8.70;4.60;;;;;;;;;;5117658;27;20489;-87
2021/01/28 03:54:33;;;;;;;7.25;4.22;;;;;;;;;;5112856;27;20027;-88
2021/01/28 03:57:18;;;;;;;8.13;5.15;;;;;;;;;;5118163;27;20151;-87
2021/01/28 04:00:08;;;;;;;9.55;5.50;;;;;;;;;;5118190;27;20015;-86
2021/01/28 04:02:53;;;;;;;9.75;4.78;;;;;;;;;;5110912;27;20100;-85
2021/01/28 04:05:38;;;;;;;11.18;4.95;;;;;;;;;;5101978;27;20016;-86
2021/01/28 04:08:24;;;;;;;8.88;4.43;;;;;;;;;;5120566;27;20051;-86
2021/01/28 04:11:09;;;;;;;7.65;4.63;;;;;;;;;;5107829;27;20110;-87
2021/01/28 04:13:54;;;;;;;7.40;4.57;;;;;;;;;;5120618;27;20030;-85
2021/01/28 04:16:39;;;;;;;7.13;3.78;;;;;;;;;;5107885;27;20023;-85
2021/01/28 04:19:24;;;;;;;9.60;5.10;;;;;;;;;;5119768;27;20031;-86
2021/01/28 04:22:10;;;;;;;8.02;4.55;;;;;;;;;;5121386;27;20030;-87
2021/01/28 04:24:55;;;;;;;6.88;4.18;;;;;;;;;;5107604;27;20098;-85
2021/01/28 04:27:40;;;;;;;11.45;5.07;;;;;;;;;;5113921;27;20025;-86
2021/01/28 04:30:27;;;;;;;10.13;4.30;;;;;;;;;;5109454;27;20026;-87
2021/01/28 04:33:12;;;;;;;10.05;4.63;;;;;;;;;;5113515;27;20027;-87
2021/01/28 04:35:58;;;;;;;9.10;4.68;;;;;;;;;;5113903;27;20030;-86
2021/01/28 04:38:43;;;;;;;9.07;5.28;;;;;;;;;;5115937;27;20029;-87
2021/01/28 04:41:29;;;;;;;8.65;4.13;;;;;;;;;;5115320;27;20080;-86
2021/01/28 04:44:15;;;;;;;8.68;5.13;;;;;;;;;;5109969;27;20476;-86
2021/01/28 04:47:01;;;;;;;11.73;5.43;;;;;;;;;;5119516;27;20115;-86
2021/01/28 04:49:51;;;;;;;10.88;5.53;;;;;;;;;;5110098;27;20538;-87
2021/01/28 04:52:39;;;;;;;10.25;5.60;;;;;;;;;;5111761;27;20031;-88
2021/01/28 04:55:31;;;;;;;10.35;5.53;;;;;;;;;;5106527;27;20024;-88
2021/01/28 04:58:17;;;;;;;12.18;7.13;;;;;;;;;;5115470;27;20043;-86
2021/01/28 05:01:02;;;;;;;13.02;6.20;;;;;;;;;;5083128;27;20059;-87
2021/01/28 05:03:50;;;;;;;8.40;4.75;;;;;;;;;;5096050;27;20404;-88
2021/01/28 05:06:35;;;;;;;11.02;6.68;;;;;;;;;;5112312;27;20446;-87
2021/01/28 05:09:20;;;;;;;9.77;5.65;;;;;;;;;;5107453;27;20322;-87
2021/01/28 05:12:05;;;;;;;14.68;7.90;;;;;;;;;;5111402;27;20019;-87
2021/01/28 05:14:51;;;;;;;10.63;6.65;;;;;;;;;;5112931;27;20055;-87
2021/01/28 05:17:36;;;;;;;12.23;6.57;;;;;;;;;;5109449;27;20023;-87
2021/01/28 05:20:23;;;;;;;12.20;7.38;;;;;;;;;;5115181;27;20015;-85
2021/01/28 05:23:11;;;;;;;16.85;8.15;;;;;;;;;;5116593;27;20073;-87
2021/01/28 05:25:56;;;;;;;13.05;8.43;;;;;;;;;;5110801;27;20023;-86
2021/01/28 05:28:42;;;;;;;12.98;8.10;;;;;;;;;;5098826;27;20516;-86
2021/01/28 05:31:32;;;;;;;12.95;6.85;;;;;;;;;;5116485;27;20030;-87
2021/01/28 05:34:35;;;;;;;15.07;7.72;;;;;;;;;;5122383;27;20015;-88
2021/01/28 05:37:24;;;;;;;12.68;7.78;;;;;;;;;;5114026;27;20035;-88
2021/01/28 05:40:20;;;;;;;9.40;6.07;;;;;;;;;;5112785;27;20037;-87
2021/01/28 05:43:30;;;;;;;13.88;7.70;;;;;;;;;;5110844;27;20026;-87
2021/01/28 05:46:23;;;;;;;14.65;8.95;;;;;;;;;;5112597;27;20019;-87
2021/01/28 05:49:19;;;;;;;13.57;7.40;;;;;;;;;;5106583;27;20027;-87
2021/01/28 05:52:31;;;;;;;15.68;8.68;;;;;;;;;;5097507;27;20034;-87
2021/01/28 05:55:19;;;;;;;16.88;7.85;;;;;;;;;;5120494;27;20434;-88
2021/01/28 05:58:22;;;;;;;11.32;6.68;;;;;;;;;;5104457;27;20035;-87
2021/01/28 06:01:13;;;;;;;13.80;8.00;;;;;;;;;;5113266;27;20106;-86
2021/01/28 06:04:06;;;;;;;10.93;6.57;;;;;;;;;;5107559;27;20026;-86
2021/01/28 06:06:54;;;;;;;10.93;6.80;;;;;;;;;;5112517;27;20022;-87
2021/01/28 06:09:58;;;;;;;12.13;7.03;;;;;;;;;;5110308;27;20034;-87
2021/01/28 06:12:53;;;;;;;10.88;6.95;;;;;;;;;;5111561;27;20125;-85
2021/01/28 06:15:57;;;;;;;13.43;6.57;;;;;;;;;;5108904;27;20123;-88
2021/01/28 06:18:51;;;;;;;14.80;7.32;;;;;;;;;;5114715;27;20609;-86
2021/01/28 06:21:45;;;;;;;14.68;7.90;;;;;;;;;;5109162;27;20035;-87
2021/01/28 06:24:36;;;;;;;12.43;6.78;;;;;;;;;;5111234;27;20030;-87
2021/01/28 06:27:21;;;;;;;13.15;6.93;;;;;;;;;;5115100;27;20117;-87
2021/01/28 06:30:12;;;;;;;13.15;7.10;;;;;;;;;;5107090;27;20024;-87
2021/01/28 06:33:09;;;;;;;12.48;6.88;;;;;;;;;;5111111;27;20072;-86
2021/01/28 06:36:04;;;;;;;12.38;7.05;;;;;;;;;;5110132;27;20019;-86
2021/01/28 06:38:49;;;;;;;19.23;7.93;;;;;;;;;;5119366;27;20023;-85
2021/01/28 06:41:38;;;;;;;16.65;8.25;;;;;;;;;;5127453;28;20066;-88
2021/01/28 06:44:27;;;;;;;158.55;96.05;;;;;;;;;;5121341;27;20030;-87
2021/01/28 06:47:12;;;;;;;25.52;14.57;;;;;;;;;;5112288;27;20030;-86
2021/01/28 06:50:01;;;;;;;12.07;7.05;;;;;;;;;;5111064;27;20034;-86
2021/01/28 06:52:53;;;;;;;11.48;6.28;;;;;;;;;;5109750;27;20027;-85
2021/01/28 06:55:44;;;;;;;14.82;7.63;;;;;;;;;;5109978;27;20027;-85
2021/01/28 06:58:45;;;;;;;12.73;7.05;;;;;;;;;;5111217;27;20454;-87
2021/01/28 07:01:47;;;;;;;10.88;5.60;;;;;;;;;;5109090;27;20035;-86
2021/01/28 07:04:52;;;;;;;12.48;5.65;;;;;;;;;;5100906;27;20118;-86
2021/01/28 07:07:56;;;;;;;11.52;5.15;;;;;;;;;;5114960;27;20115;-87
2021/01/28 07:10:42;;;;;;;12.85;5.88;;;;;;;;;;5105229;27;20019;-87
2021/01/28 07:13:37;;;;;;;10.35;5.88;;;;;;;;;;5115169;27;20015;-86
2021/01/28 07:16:28;;;;;;;11.38;5.63;;;;;;;;;;5114650;27;20134;-88
2021/01/28 07:19:19;;;;;;;14.15;7.47;;;;;;;;;;5116878;27;20072;-89
2021/01/28 07:22:23;;;;;;;12.95;5.65;;;;;;;;;;5111624;27;20472;-87
2021/01/28 07:25:35;;;;;;;12.95;5.95;;;;;;;;;;5111158;27;20146;-89
2021/01/28 07:28:20;;;;;;;10.55;5.63;;;;;;;;;;5116849;27;20023;-84
2021/01/28 07:31:05;;;;;;;57.47;36.72;;;;;;;;;;5106453;27;20034;-87
2021/01/28 07:33:56;;;;;;;17.45;9.30;;;;;;;;;;5115826;27;20027;-87
2021/01/28 07:36:46;;;;;;;15.45;7.43;;;;;;;;;;5096664;27;20026;-89
2021/01/28 07:45:09;;;;;;;14.52;6.10;;;;;;;;;;5424884;22;20039;-85
2021/01/28 07:48:19;;;;;;;12.90;7.28;;;;;;;;;;4980901;28;20096;-87
2021/01/28 08:08:13;;;;;;;12.68;6.50;;;;;;;;;;5109558;28;20020;-87
2021/01/28 08:15:14;;;;;;;18.60;7.35;;;;;;;;;;4995195;28;20034;-87
2021/01/28 08:18:21;;;;;;;44.80;28.15;;;;;;;;;;5003804;28;20120;-86
2021/01/28 08:21:31;;;;;;;10.25;5.53;;;;;;;;;;5015349;28;20033;-90
2021/01/28 09:00:45;;;;;;;9.68;3.40;;;;;;;;;;5048238;28;20028;-85
2021/01/28 09:17:07;;;;;;;17.58;10.35;;;;;;;;;;5052899;28;20047;-86
2021/01/28 09:20:15;;;;;;;;;;;;;;;;;;;;;
2021/01/28 10:22:37;;;;;;;5.95;1.95;;;;;;;;;;5083887;28;20043;-94
2021/01/28 10:25:21;;;;;;;2.33;1.58;;;;;;;;;;5071147;28;20090;-84
2021/01/28 10:47:08;;;;;;;3.10;1.90;;;;;;;;;;5052850;28;20669;-83
2021/01/28 10:49:54;;;;;;;3.38;1.52;;;;;;;;;;5065047;28;20098;-84
2021/01/28 10:52:42;;;;;;;56.20;31.92;;;;;;;;;;5062734;28;20411;-84
2021/01/28 10:55:34;;;;;;;8.75;3.40;;;;;;;;;;5060620;28;20021;-84
2021/01/28 10:58:26;;;;;;;5.82;2.28;;;;;;;;;;5060107;28;20028;-82
2021/01/28 11:01:14;;;;;;;6.95;2.10;;;;;;;;;;5059532;28;20271;-83
2021/01/28 11:04:03;;;;;;;4.88;1.73;;;;;;;;;;5060625;28;20020;-83
2021/01/28 11:06:51;;;;;;;3.30;1.50;;;;;;;;;;5048594;28;20040;-83
2021/01/28 11:09:39;;;;;;;22.60;4.63;;;;;;;;;;5059837;28;20028;-82
2021/01/28 11:16:03;;;;;;;12.32;4.53;;;;;;;;;;5063724;28;20041;-84
2021/01/28 11:18:58;;;;;;;6.50;2.25;;;;;;;;;;5064490;28;20029;-86
2021/01/28 11:22:01;;;;;;;6.00;2.50;;;;;;;;;;5041059;28;20079;-85
2021/01/28 11:38:19;;;;;;;4.32;1.67;;;;;;;;;;5010728;28;20032;-86
2021/01/28 11:41:24;;;;;;;3.50;1.50;;;;;;;;;;5054827;28;20150;-84
2021/01/28 11:44:16;;;;;;;2.50;1.30;;;;;;;;;;5071847;28;20053;-84
2021/01/28 11:47:17;;;;;;;2.40;1.40;;;;;;;;;;5071858;28;20432;-84
2021/01/28 11:50:03;;;;;;;3.65;1.70;;;;;;;;;;5055583;28;20023;-83
2021/01/28 11:52:48;;;;;;;2.35;1.20;;;;;;;;;;5072564;28;20328;-84
2021/01/28 11:55:36;;;;;;;5.32;1.80;;;;;;;;;;5070330;28;20032;-81
2021/01/28 11:58:25;;;;;;;2.92;1.73;;;;;;;;;;5064843;28;20028;-83
2021/01/28 12:01:13;;;;;;;3.28;1.40;;;;;;;;;;5074166;28;20024;-88
2021/01/28 12:04:09;;;;;;;2.25;1.40;;;;;;;;;;5075522;28;20043;-85
2021/01/28 12:06:57;;;;;;;5.05;2.13;;;;;;;;;;5074191;28;20096;-84
2021/01/28 12:10:16;;;;;;;;;;;;;;;;;;;;;
2021/01/28 12:13:04;;;;;;;1.67;1.40;;;;;;;;;;5065608;28;20044;-83
2021/01/28 12:15:55;;;;;;;2.78;1.55;;;;;;;;;;5064392;28;20170;-83
2021/01/28 12:18:41;;;;;;;3.25;1.55;;;;;;;;;;5072175;28;20024;-83
2021/01/28 12:21:29;;;;;;;3.53;1.52;;;;;;;;;;5067563;28;20755;-87
2021/01/28 12:24:15;;;;;;;3.33;1.50;;;;;;;;;;5069216;28;20037;-87
2021/01/28 12:27:14;;;;;;;;;;;;;;;;;;;;;
2021/01/28 12:30:05;;;;;;;2.83;1.40;;;;;;;;;;5054261;28;20084;-87
2021/01/28 12:33:30;;;;;;;;;;;;;;;;;;;;;
2021/01/28 12:37:02;;;;;;;;;;;;;;;;;;;;;
2021/01/28 12:39:51;;;;;;;2.85;1.58;;;;;;;;;;5070937;28;20828;-86
2021/01/28 12:43:06;;;;;;;1.95;1.42;;;;;;;;;;5067632;28;20602;-89
2021/01/28 12:45:57;;;;;;;3.65;1.58;;;;;;;;;;5080972;28;20135;-85
2021/01/28 12:48:42;;;;;;;2.47;0.95;;;;;;;;;;5068944;28;20678;-87
2021/01/28 12:51:53;;;;;;;;;;;;;;;;;;;;;
2021/01/28 12:54:41;;;;;;;3.13;1.30;;;;;;;;;;5082504;28;20024;-85
2021/01/28 12:57:42;;;;;;;2.45;1.20;;;;;;;;;;5056189;28;20098;-88
2021/01/28 13:04:01;;;;;;;2.03;1.20;;;;;;;;;;5053183;28;20016;-85
2021/01/28 13:06:49;;;;;;;1.95;1.33;;;;;;;;;;5042913;28;20394;-85
2021/01/28 13:43:32;;;;;;;;;;;;;;;;;;;;;
2021/01/28 14:00:22;;;;;;;1.40;1.30;;;;;;;;;;4955753;28;20608;-93
2021/01/28 14:03:15;;;;;;;2.97;1.33;;;;;;;;;;4938581;28;20077;-84
2021/01/28 14:06:00;;;;;;;3.88;1.58;;;;;;;;;;4976993;28;20021;-84
2021/01/28 14:08:46;;;;;;;3.50;1.30;;;;;;;;;;5021145;28;20021;-82
2021/01/28 14:11:31;;;;;;;1.20;0.90;;;;;;;;;;5034466;28;20502;-81
2021/01/28 14:14:16;;;;;;;1.50;0.90;;;;;;;;;;5032932;28;20086;-87
2021/01/28 14:17:02;;;;;;;1.10;0.90;;;;;;;;;;5036608;28;20017;-87
2021/01/28 14:19:51;;;;;;;1.75;0.90;;;;;;;;;;5032199;28;20024;-86
2021/01/28 14:23:08;;;;;;;2.17;1.02;;;;;;;;;;4982022;28;20034;-86
2021/01/28 14:26:28;;;;;;;1.17;0.90;;;;;;;;;;5033019;28;20029;-88
2021/01/28 14:29:31;;;;;;;2.38;1.23;;;;;;;;;;5039031;28;20383;-88
2021/01/28 14:36:24;;;;;;;1.85;0.80;;;;;;;;;;4954623;28;20046;-87
2021/01/28 14:39:21;;;;;;;1.98;1.00;;;;;;;;;;4956432;28;20031;-87
2021/01/28 14:42:24;;;;;;;1.67;0.90;;;;;;;;;;5014155;28;20033;-86
2021/01/28 14:45:25;;;;;;;1.30;0.75;;;;;;;;;;5013983;28;20065;-86
2021/01/28 14:48:26;;;;;;;2.30;1.02;;;;;;;;;;5032087;28;20647;-86
2021/01/28 14:51:19;;;;;;;1.35;0.75;;;;;;;;;;5032740;28;20036;-85
2021/01/28 14:54:12;;;;;;;2.78;1.00;;;;;;;;;;5029028;28;20032;-86
2021/01/28 14:56:58;;;;;;;1.30;0.90;;;;;;;;;;5025916;28;20032;-81
2021/01/28 14:59:46;;;;;;;2.25;1.00;;;;;;;;;;5032429;28;20041;-83
2021/01/28 15:02:54;;;;;;;2.50;1.17;;;;;;;;;;5040844;28;20082;-88
2021/01/28 15:09:07;;;;;;;1.85;0.90;;;;;;;;;;5055835;28;20108;-91
2021/01/28 15:15:53;;;;;;;3.70;2.20;;;;;;;;;;5033101;28;20036;-93
2021/01/28 15:18:38;;;;;;;1.60;0.98;;;;;;;;;;4977766;28;20022;-87
2021/01/28 15:21:24;;;;;;;0.93;0.82;;;;;;;;;;4959016;28;20035;-88
2021/01/28 15:24:09;;;;;;;1.90;0.60;;;;;;;;;;5028120;28;20413;-88
2021/01/28 15:26:54;;;;;;;2.67;0.80;;;;;;;;;;5034785;28;20086;-87
2021/01/28 15:29:40;;;;;;;1.35;0.70;;;;;;;;;;5037404;28;20471;-87
2021/01/28 15:32:25;;;;;;;1.17;0.52;;;;;;;;;;5036693;28;20786;-87
2021/01/28 15:35:13;;;;;;;1.52;0.80;;;;;;;;;;5038709;28;20024;-88
2021/01/28 15:38:01;;;;;;;0.80;0.70;;;;;;;;;;5035356;28;20052;-88
2021/01/28 15:41:09;;;;;;;1.00;0.90;;;;;;;;;;5042869;28;20036;-88
2021/01/28 15:43:54;;;;;;;0.90;0.50;;;;;;;;;;5037158;28;20120;-87
2021/01/28 15:46:39;;;;;;;0.50;0.50;;;;;;;;;;5041934;28;20040;-85
2021/01/28 15:49:25;;;;;;;0.50;0.50;;;;;;;;;;5037521;28;20098;-85
2021/01/28 15:52:10;;;;;;;1.13;0.60;;;;;;;;;;5054362;28;20056;-86
2021/01/28 15:54:55;;;;;;;1.58;0.52;;;;;;;;;;5035140;28;20028;-86
2021/01/28 15:57:41;;;;;;;1.33;0.50;;;;;;;;;;5040883;28;20104;-87
2021/01/28 16:00:26;;;;;;;0.98;0.68;;;;;;;;;;5039924;28;20029;-86
2021/01/28 16:03:12;;;;;;;1.33;0.60;;;;;;;;;;5032674;28;20025;-85
2021/01/28 16:05:59;;;;;;;1.70;0.80;;;;;;;;;;5023147;28;20104;-86
2021/01/28 16:08:44;;;;;;;1.55;0.60;;;;;;;;;;5033290;28;20089;-87
2021/01/28 16:15:08;;;;;;;1.75;1.00;;;;;;;;;;5033894;28;20025;-88
2021/01/28 16:17:54;;;;;;;0.43;0.43;;;;;;;;;;5029960;28;20160;-86
2021/01/28 16:20:42;;;;;;;0.60;0.60;;;;;;;;;;5038346;28;20403;-86
2021/01/28 16:23:27;;;;;;;0.63;0.60;;;;;;;;;;5037832;28;20107;-86
2021/01/28 16:26:36;;;;;;;1.02;0.60;;;;;;;;;;5041652;28;20651;-89
2021/01/28 16:29:31;;;;;;;;;;;;;;;;;;;;;
2021/01/28 16:32:20;;;;;;;1.17;0.50;;;;;;;;;;5038324;28;20112;-87
2021/01/28 16:35:18;;;;;;;0.63;0.63;;;;;;;;;;5037302;28;20024;-89
2021/01/28 16:38:24;;;;;;;1.65;0.82;;;;;;;;;;5031090;28;20027;-89
2021/01/28 16:41:30;;;;;;;0.77;0.60;;;;;;;;;;5036070;28;20064;-88
2021/01/28 17:05:26;;;;;;;0.50;0.50;;;;;;;;;;4931717;29;20116;-87
2021/01/28 17:08:12;;;;;;;0.77;0.60;;;;;;;;;;4954273;28;20026;-83
2021/01/28 17:10:57;;;;;;;2.08;0.90;;;;;;;;;;5012055;28;20036;-82
2021/01/28 17:13:42;;;;;;;1.15;0.60;;;;;;;;;;5006086;28;20025;-83
2021/01/28 17:16:28;;;;;;;0.95;0.60;;;;;;;;;;5023679;28;20021;-83
2021/01/28 17:19:13;;;;;;;1.38;0.70;;;;;;;;;;5008405;28;20045;-84
2021/01/28 17:21:59;;;;;;;1.02;0.60;;;;;;;;;;5013608;28;20030;-84
2021/01/28 17:24:44;;;;;;;0.45;0.45;;;;;;;;;;5020727;28;20067;-84
2021/01/28 17:27:29;;;;;;;0.90;0.70;;;;;;;;;;5008222;28;20029;-84
2021/01/28 17:30:17;;;;;;;0.50;0.50;;;;;;;;;;5040547;28;20025;-83
2021/01/28 17:33:03;;;;;;;0.80;0.60;;;;;;;;;;5026239;28;20044;-82
2021/01/28 17:35:48;;;;;;;1.25;0.98;;;;;;;;;;5029503;28;20067;-82
2021/01/28 17:38:37;;;;;;;1.90;0.90;;;;;;;;;;5025045;28;20040;-82
2021/01/28 17:41:22;;;;;;;1.50;0.90;;;;;;;;;;5032840;28;20029;-82
2021/01/28 17:44:13;;;;;;;0.80;0.70;;;;;;;;;;5029232;28;20035;-84
2021/01/28 17:46:58;;;;;;;0.80;0.63;;;;;;;;;;5029178;28;20028;-82
2021/01/28 17:49:43;;;;;;;0.57;0.57;;;;;;;;;;5027032;28;20029;-81
2021/01/28 17:52:28;;;;;;;1.38;1.00;;;;;;;;;;5037872;28;20398;-81
2021/01/28 17:55:15;;;;;;;3.38;1.73;;;;;;;;;;5052232;28;20031;-84
2021/01/28 17:58:01;;;;;;;1.20;0.70;;;;;;;;;;5053584;28;20566;-80
2021/01/28 18:00:47;;;;;;;0.98;0.80;;;;;;;;;;5048965;28;20029;-80
2021/01/28 18:03:34;;;;;;;1.65;0.82;;;;;;;;;;5053829;28;20093;-80
2021/01/28 18:06:19;;;;;;;1.13;0.73;;;;;;;;;;5049754;28;20131;-81
2021/01/28 18:09:05;;;;;;;0.68;0.68;;;;;;;;;;5037590;28;20426;-80
2021/01/28 18:11:53;;;;;;;0.60;0.60;;;;;;;;;;5051146;28;20466;-81
2021/01/28 18:14:39;;;;;;;1.35;0.60;;;;;;;;;;5054069;28;20024;-80
2021/01/28 18:17:26;;;;;;;0.73;0.73;;;;;;;;;;5050109;28;20059;-80
2021/01/28 18:20:12;;;;;;;1.70;0.77;;;;;;;;;;5047059;28;20033;-80
2021/01/28 18:22:57;;;;;;;2.25;0.70;;;;;;;;;;5057686;28;20027;-79
2021/01/28 18:25:42;;;;;;;0.75;0.52;;;;;;;;;;5045999;28;20039;-81
2021/01/28 18:28:28;;;;;;;0.75;0.60;;;;;;;;;;5048323;28;20324;-81
2021/01/28 18:31:14;;;;;;;0.88;0.40;;;;;;;;;;5051082;28;20052;-80
2021/01/28 18:33:59;;;;;;;0.50;0.50;;;;;;;;;;5054901;28;20030;-80
2021/01/28 18:36:44;;;;;;;15.15;9.13;;;;;;;;;;5049774;28;20078;-82
2021/01/28 18:39:30;;;;;;;2.70;0.95;;;;;;;;;;5050007;28;20032;-81
2021/01/28 18:42:15;;;;;;;2.17;0.60;;;;;;;;;;5045360;28;20140;-81
2021/01/28 18:45:01;;;;;;;0.50;0.50;;;;;;;;;;5069218;28;20020;-81
2021/01/28 18:47:49;;;;;;;1.15;0.85;;;;;;;;;;5052595;28;20498;-80
2021/01/28 18:50:35;;;;;;;0.52;0.50;;;;;;;;;;5054609;28;20039;-81
2021/01/28 18:53:20;;;;;;;1.55;0.60;;;;;;;;;;5053080;28;20052;-81
2021/01/28 18:56:06;;;;;;;0.95;0.60;;;;;;;;;;5052072;28;20829;-81
2021/01/28 18:58:51;;;;;;;7.45;4.00;;;;;;;;;;5050000;28;20017;-81
2021/01/28 19:01:37;;;;;;;0.80;0.80;;;;;;;;;;5055402;28;20024;-82
2021/01/28 19:04:22;;;;;;;0.60;0.60;;;;;;;;;;5054595;28;20016;-82
2021/01/28 19:07:07;;;;;;;0.60;0.60;;;;;;;;;;5060620;28;20055;-82
2021/01/28 19:09:53;;;;;;;1.00;0.63;;;;;;;;;;5058664;28;20103;-81
2021/01/28 19:12:38;;;;;;;1.13;0.80;;;;;;;;;;5054564;28;20073;-80
2021/01/28 19:15:27;;;;;;;1.95;0.70;;;;;;;;;;5058322;28;20020;-82
2021/01/28 19:18:12;;;;;;;1.17;0.90;;;;;;;;;;5044940;28;20035;-81
2021/01/28 19:20:57;;;;;;;1.67;0.60;;;;;;;;;;5048235;28;20023;-83
2021/01/28 19:23:43;;;;;;;1.05;0.88;;;;;;;;;;5056725;28;20074;-80
2021/01/28 19:26:28;;;;;;;0.55;0.55;;;;;;;;;;5056613;28;20020;-79
2021/01/28 19:29:15;;;;;;;1.30;0.70;;;;;;;;;;5056560;28;20025;-83
2021/01/28 19:32:00;;;;;;;1.27;0.90;;;;;;;;;;5057186;28;20051;-81
2021/01/28 19:34:46;;;;;;;1.33;0.90;;;;;;;;;;5042832;28;20028;-80
2021/01/28 19:37:31;;;;;;;1.65;0.90;;;;;;;;;;5062134;28;20082;-79
2021/01/28 19:40:17;;;;;;;1.45;0.80;;;;;;;;;;5047465;28;20040;-80
2021/01/28 19:43:02;;;;;;;1.70;0.80;;;;;;;;;;5057218;28;20028;-79
2021/01/28 19:45:48;;;;;;;2.05;0.77;;;;;;;;;;5058222;28;20024;-79
2021/01/28 19:48:33;;;;;;;0.77;0.60;;;;;;;;;;5058202;28;20052;-78
2021/01/28 19:51:19;;;;;;;1.35;0.63;;;;;;;;;;5053107;28;20032;-79
2021/01/28 19:54:05;;;;;;;1.60;1.00;;;;;;;;;;5042236;28;20048;-79
2021/01/28 19:56:52;;;;;;;1.80;0.90;;;;;;;;;;5060083;28;20021;-80
2021/01/28 19:59:37;;;;;;;4.75;2.58;;;;;;;;;;5052516;28;20025;-80
2021/01/28 20:02:22;;;;;;;1.40;0.75;;;;;;;;;;5054631;28;20028;-79
2021/01/28 20:05:08;;;;;;;1.35;0.70;;;;;;;;;;5055798;28;20471;-80
2021/01/28 20:07:53;;;;;;;0.95;0.60;;;;;;;;;;5055405;28;20037;-79
2021/01/28 20:10:43;;;;;;;1.75;0.93;;;;;;;;;;5048341;28;20028;-79
2021/01/28 20:13:29;;;;;;;1.77;0.75;;;;;;;;;;5054134;28;20028;-80
2021/01/28 20:16:15;;;;;;;1.85;1.20;;;;;;;;;;5052990;28;20410;-79
2021/01/28 20:19:00;;;;;;;2.33;1.00;;;;;;;;;;5054526;28;20024;-82
2021/01/28 20:21:45;;;;;;;1.85;1.05;;;;;;;;;;5053886;28;20040;-79
2021/01/28 20:24:31;;;;;;;3.72;0.80;;;;;;;;;;5055685;28;20105;-79
2021/01/28 20:27:19;;;;;;;3.53;0.80;;;;;;;;;;5051441;28;20056;-80
2021/01/28 20:30:06;;;;;;;1.05;0.80;;;;;;;;;;5055501;28;20016;-80
2021/01/28 20:32:51;;;;;;;1.23;0.70;;;;;;;;;;5041779;28;20101;-80
2021/01/28 20:35:37;;;;;;;0.85;0.77;;;;;;;;;;5054512;28;20348;-81
2021/01/28 20:38:23;;;;;;;0.70;0.63;;;;;;;;;;5047834;28;20064;-81
2021/01/28 20:41:09;;;;;;;1.52;0.75;;;;;;;;;;5057944;28;20016;-79
2021/01/28 20:43:57;;;;;;;1.25;0.75;;;;;;;;;;5056003;28;20069;-80
2021/01/28 20:46:42;;;;;;;1.60;0.82;;;;;;;;;;5053794;28;20097;-80
2021/01/28 20:49:31;;;;;;;0.85;0.50;;;;;;;;;;5059295;28;20048;-80
2021/01/28 20:52:16;;;;;;;0.80;0.77;;;;;;;;;;5050549;28;20722;-80
2021/01/28 20:55:02;;;;;;;1.17;0.70;;;;;;;;;;5051187;28;20097;-80
2021/01/28 20:57:48;;;;;;;0.77;0.65;;;;;;;;;;5058636;28;20023;-81
2021/01/28 21:00:34;;;;;;;1.65;0.90;;;;;;;;;;5053978;28;20164;-81
2021/01/28 21:03:22;;;;;;;1.42;1.08;;;;;;;;;;5048387;28;20237;-81
2021/01/28 21:06:08;;;;;;;1.58;0.85;;;;;;;;;;5052627;28;20020;-80
2021/01/28 21:08:53;;;;;;;1.02;0.60;;;;;;;;;;5050757;28;20028;-80
2021/01/28 21:11:41;;;;;;;8.50;5.10;;;;;;;;;;5059744;28;20113;-81
2021/01/28 21:14:27;;;;;;;2.17;1.00;;;;;;;;;;5054270;28;20024;-81
2021/01/28 21:17:12;;;;;;;2.05;1.02;;;;;;;;;;5051963;28;20487;-81